createdAt,value
2018-07-22T00:00:13.346Z,64.62
2018-07-22T00:02:41.737Z,64.56
2018-07-22T00:05:10.134Z,64.83
2018-07-22T00:07:38.976Z,64.58
2018-07-22T00:10:14.380Z,64.09
2018-07-22T00:12:42.758Z,64.10
2018-07-22T00:15:11.166Z,64.28
2018-07-22T00:17:39.570Z,64.86
2018-07-22T00:20:07.955Z,64.50
2018-07-22T00:22:36.352Z,64.64
2018-07-22T00:25:05.037Z,64.24
2018-07-22T00:27:33.438Z,62.94
2018-07-22T00:30:01.810Z,63.39
2018-07-22T00:32:30.210Z,62.89
2018-07-22T00:34:58.589Z,62.87
2018-07-22T00:37:26.990Z,62.00
2018-07-22T00:39:55.369Z,62.12
2018-07-22T00:42:23.766Z,61.81
2018-07-22T00:44:52.138Z,62.19
2018-07-22T00:47:20.538Z,63.17
2018-07-22T00:49:49.102Z,62.69
2018-07-22T00:52:17.677Z,63.46
2018-07-22T00:54:46.050Z,63.08
2018-07-22T00:57:14.445Z,63.19
2018-07-22T00:59:42.820Z,63.11
2018-07-22T01:02:11.210Z,63.91
2018-07-22T01:04:39.588Z,63.23
2018-07-22T01:07:07.990Z,64.22
2018-07-22T01:09:36.357Z,63.67
2018-07-22T01:12:04.838Z,63.74
2018-07-22T01:14:33.214Z,64.77
2018-07-22T01:17:01.670Z,64.55
2018-07-22T01:19:30.059Z,64.12
2018-07-22T01:21:58.463Z,64.28
2018-07-22T01:24:26.838Z,65.26
2018-07-22T01:26:56.242Z,65.58
2018-07-22T01:29:24.626Z,65.29
2018-07-22T01:31:53.034Z,65.70
2018-07-22T01:34:21.410Z,65.67
2018-07-22T01:36:49.810Z,64.95
2018-07-22T01:39:18.185Z,64.52
2018-07-22T01:41:46.589Z,65.68
2018-07-22T01:44:14.966Z,65.01
2018-07-22T01:46:43.371Z,64.91
2018-07-22T01:49:11.753Z,65.93
2018-07-22T01:51:40.198Z,65.38
2018-07-22T01:54:08.582Z,65.74
2018-07-22T01:56:36.985Z,66.14
2018-07-22T01:59:05.361Z,66.39
2018-07-22T02:01:33.795Z,66.44
2018-07-22T02:04:02.187Z,66.33
2018-07-22T02:06:30.599Z,66.87
2018-07-22T02:08:58.995Z,66.35
2018-07-22T02:11:27.587Z,66.29
2018-07-22T02:13:55.978Z,66.70
2018-07-22T02:16:24.378Z,67.19
2018-07-22T02:18:52.780Z,67.03
2018-07-22T02:21:21.157Z,65.94
2018-07-22T02:23:49.565Z,66.29
2018-07-22T02:26:17.945Z,66.84
2018-07-22T02:28:46.351Z,66.20
2018-07-22T02:31:14.731Z,66.26
2018-07-22T02:33:43.139Z,67.07
2018-07-22T02:36:11.517Z,67.36
2018-07-22T02:38:39.930Z,67.76
2018-07-22T02:41:08.322Z,66.85
2018-07-22T02:43:36.744Z,67.28
2018-07-22T02:46:05.132Z,66.68
2018-07-22T02:48:33.539Z,66.71
2018-07-22T02:51:01.931Z,67.43
2018-07-22T02:53:30.331Z,66.95
2018-07-22T02:55:58.711Z,66.88
2018-07-22T02:58:27.122Z,67.64
2018-07-22T03:00:55.504Z,67.04
2018-07-22T03:03:23.957Z,67.96
2018-07-22T03:05:52.318Z,67.30
2018-07-22T03:08:20.709Z,68.18
2018-07-22T03:10:49.085Z,67.86
2018-07-22T03:13:17.482Z,67.85
2018-07-22T03:15:45.864Z,67.60
2018-07-22T03:18:14.303Z,67.42
2018-07-22T03:20:42.700Z,67.78
2018-07-22T03:23:11.195Z,67.78
2018-07-22T03:25:39.587Z,67.64
2018-07-22T03:28:08.031Z,68.13
2018-07-22T03:30:36.422Z,67.75
2018-07-22T03:33:06.452Z,68.49
2018-07-22T03:35:34.814Z,67.50
2018-07-22T03:38:03.234Z,67.68
2018-07-22T03:40:31.655Z,68.48
2018-07-22T03:43:00.054Z,68.60
2018-07-22T03:45:28.439Z,67.52
2018-07-22T03:47:56.833Z,68.16
2018-07-22T03:50:25.219Z,67.53
2018-07-22T03:52:53.631Z,68.08
2018-07-22T03:55:22.021Z,67.91
2018-07-22T03:57:50.429Z,68.43
2018-07-22T04:00:18.815Z,67.56
2018-07-22T04:02:47.224Z,67.67
2018-07-22T04:05:15.610Z,67.11
2018-07-22T04:07:44.027Z,67.22
2018-07-22T04:10:12.411Z,67.95
2018-07-22T04:12:40.917Z,66.89
2018-07-22T04:15:09.297Z,67.70
2018-07-22T04:17:37.743Z,66.96
2018-07-22T04:20:06.351Z,67.40
2018-07-22T04:22:34.972Z,66.34
2018-07-22T04:25:03.638Z,66.26
2018-07-22T04:27:32.014Z,66.89
2018-07-22T04:30:00.413Z,66.28
2018-07-22T04:32:28.854Z,66.38
2018-07-22T04:34:57.249Z,66.17
2018-07-22T04:37:25.641Z,66.04
2018-07-22T04:39:54.039Z,66.37
2018-07-22T04:42:22.406Z,66.98
2018-07-22T04:44:50.808Z,67.41
2018-07-22T04:47:19.178Z,67.24
2018-07-22T04:49:47.583Z,66.52
2018-07-22T04:52:15.960Z,66.93
2018-07-22T04:54:44.594Z,66.48
2018-07-22T04:57:12.975Z,65.77
2018-07-22T04:59:41.379Z,66.22
2018-07-22T05:02:09.749Z,66.16
2018-07-22T05:04:38.154Z,66.25
2018-07-22T05:07:06.542Z,66.16
2018-07-22T05:09:34.943Z,65.79
2018-07-22T05:12:03.562Z,64.98
2018-07-22T05:14:31.957Z,65.53
2018-07-22T05:17:00.361Z,63.98
2018-07-22T05:19:28.770Z,63.63
2018-07-22T05:21:57.166Z,63.61
2018-07-22T05:24:25.570Z,63.54
2018-07-22T05:26:53.959Z,63.46
2018-07-22T05:29:22.354Z,62.61
2018-07-22T05:31:50.742Z,62.85
2018-07-22T05:34:19.145Z,62.02
2018-07-22T05:36:47.527Z,62.38
2018-07-22T05:39:15.935Z,61.37
2018-07-22T05:41:44.323Z,60.87
2018-07-22T05:44:12.735Z,59.88
2018-07-22T05:46:41.133Z,59.10
2018-07-22T05:49:09.526Z,59.08
2018-07-22T05:51:37.898Z,57.49
2018-07-22T05:54:06.482Z,55.33
2018-07-22T05:56:34.848Z,55.89
2018-07-22T05:59:03.266Z,54.42
2018-07-22T06:01:31.637Z,54.70
2018-07-22T06:04:00.031Z,53.31
2018-07-22T06:06:28.405Z,53.24
2018-07-22T06:08:56.803Z,51.55
2018-07-22T06:11:25.179Z,51.45
2018-07-22T06:13:53.586Z,52.22
2018-07-22T06:16:21.950Z,51.59
2018-07-22T06:18:50.373Z,51.95
2018-07-22T06:21:18.742Z,52.43
2018-07-22T06:23:47.115Z,51.82
2018-07-22T06:26:15.522Z,51.75
2018-07-22T06:28:43.896Z,51.31
2018-07-22T06:31:12.302Z,50.80
2018-07-22T06:33:40.674Z,50.27
2018-07-22T06:36:09.087Z,50.79
2018-07-22T06:38:37.726Z,50.67
2018-07-22T06:41:06.191Z,50.11
2018-07-22T06:43:34.556Z,49.71
2018-07-22T06:46:02.968Z,50.95
2018-07-22T06:48:31.363Z,51.05
2018-07-22T06:50:59.754Z,51.38
2018-07-22T06:53:28.174Z,51.64
2018-07-22T06:55:56.567Z,51.32
2018-07-22T06:58:24.944Z,52.22
2018-07-22T07:00:53.353Z,51.39
2018-07-22T07:03:21.727Z,50.88
2018-07-22T07:05:50.162Z,51.70
2018-07-22T07:08:18.538Z,52.37
2018-07-22T07:10:46.979Z,50.63
2018-07-22T07:13:15.349Z,50.33
2018-07-22T07:15:43.747Z,49.19
2018-07-22T07:18:12.146Z,48.54
2018-07-22T07:20:40.545Z,48.94
2018-07-22T07:23:08.966Z,47.98
2018-07-22T07:25:37.366Z,47.09
2018-07-22T07:28:14.142Z,46.41
2018-07-22T07:30:42.540Z,45.47
2018-07-22T07:33:10.919Z,45.84
2018-07-22T07:35:39.319Z,44.79
2018-07-22T07:38:07.683Z,44.86
2018-07-22T07:40:36.087Z,44.15
2018-07-22T07:43:04.475Z,44.84
2018-07-22T07:45:32.875Z,43.74
2018-07-22T07:48:01.243Z,43.64
2018-07-22T07:50:29.642Z,43.96
2018-07-22T07:52:58.023Z,43.90
2018-07-22T07:55:26.409Z,42.40
2018-07-22T07:57:54.799Z,43.30
2018-07-22T08:00:23.203Z,42.35
2018-07-22T08:02:51.582Z,42.58
2018-07-22T08:05:19.983Z,42.37
2018-07-22T08:07:48.358Z,41.51
2018-07-22T08:10:16.750Z,42.42
2018-07-22T08:12:45.130Z,42.60
2018-07-22T08:15:13.543Z,41.53
2018-07-22T08:17:41.952Z,42.16
2018-07-22T08:20:10.361Z,42.37
2018-07-22T08:22:38.746Z,40.76
2018-07-22T08:25:07.557Z,41.16
2018-07-22T08:27:35.982Z,40.43
2018-07-22T08:30:05.165Z,39.87
2018-07-22T08:32:33.593Z,37.64
2018-07-22T08:35:01.974Z,38.07
2018-07-22T08:37:30.371Z,38.31
2018-07-22T08:39:58.755Z,37.74
2018-07-22T08:42:27.158Z,37.78
2018-07-22T08:44:55.539Z,36.46
2018-07-22T08:47:23.961Z,36.05
2018-07-22T08:49:52.337Z,36.45
2018-07-22T08:52:20.742Z,37.13
2018-07-22T08:54:49.130Z,35.77
2018-07-22T08:57:17.543Z,35.44
2018-07-22T08:59:45.922Z,36.29
2018-07-22T09:02:14.953Z,35.10
2018-07-22T09:04:43.329Z,34.82
2018-07-22T09:07:11.725Z,35.97
2018-07-22T09:09:40.107Z,35.74
2018-07-22T09:12:08.521Z,36.47
2018-07-22T09:14:36.899Z,36.48
2018-07-22T09:17:05.353Z,35.91
2018-07-22T09:19:33.731Z,36.26
2018-07-22T09:22:02.139Z,36.24
2018-07-22T09:24:30.533Z,36.55
2018-07-22T09:26:58.959Z,36.64
2018-07-22T09:29:27.358Z,35.74
2018-07-22T09:31:55.766Z,36.59
2018-07-22T09:34:24.142Z,35.48
2018-07-22T09:36:52.551Z,36.83
2018-07-22T09:39:20.931Z,36.00
2018-07-22T09:41:49.364Z,36.21
2018-07-22T09:44:17.727Z,36.66
2018-07-22T09:46:46.126Z,37.46
2018-07-22T09:49:14.521Z,36.01
2018-07-22T09:51:42.925Z,36.04
2018-07-22T09:54:11.302Z,36.99
2018-07-22T09:56:39.700Z,36.85
2018-07-22T09:59:08.144Z,36.59
2018-07-22T10:01:36.550Z,36.59
2018-07-22T10:04:04.987Z,36.16
2018-07-22T10:06:33.390Z,36.53
2018-07-22T10:09:01.775Z,35.40
2018-07-22T10:11:30.180Z,35.78
2018-07-22T10:13:58.558Z,35.32
2018-07-22T10:16:26.957Z,35.32
2018-07-22T10:18:55.349Z,36.01
2018-07-22T10:21:23.737Z,35.70
2018-07-22T10:23:52.107Z,36.11
2018-07-22T10:26:20.488Z,36.47
2018-07-22T10:28:48.887Z,36.84
2018-07-22T10:31:17.401Z,35.56
2018-07-22T10:33:45.821Z,36.08
2018-07-22T10:36:14.193Z,36.54
2018-07-22T10:38:42.594Z,37.50
2018-07-22T10:41:10.974Z,37.40
2018-07-22T10:43:39.379Z,37.57
2018-07-22T10:46:07.771Z,37.86
2018-07-22T10:48:36.174Z,36.83
2018-07-22T10:51:04.664Z,37.92
2018-07-22T10:53:33.007Z,36.35
2018-07-22T10:56:01.414Z,38.10
2018-07-22T10:58:29.813Z,38.00
2018-07-22T11:00:58.193Z,37.14
2018-07-22T11:03:26.657Z,37.10
2018-07-22T11:05:54.989Z,36.56
2018-07-22T11:08:23.395Z,36.74
2018-07-22T11:10:51.774Z,36.15
2018-07-22T11:13:20.170Z,35.47
2018-07-22T11:15:48.557Z,35.01
2018-07-22T11:18:16.977Z,34.70
2018-07-22T11:20:45.379Z,35.00
2018-07-22T11:23:13.779Z,35.74
2018-07-22T11:25:42.149Z,34.52
2018-07-22T11:28:10.537Z,35.01
2018-07-22T11:30:39.065Z,34.35
2018-07-22T11:33:07.459Z,34.13
2018-07-22T11:35:35.838Z,33.94
2018-07-22T11:38:04.222Z,33.19
2018-07-22T11:40:32.601Z,33.67
2018-07-22T11:43:01.003Z,33.05
2018-07-22T11:45:29.381Z,32.24
2018-07-22T11:47:57.798Z,32.92
2018-07-22T11:50:26.368Z,32.62
2018-07-22T11:52:54.743Z,31.88
2018-07-22T11:55:23.129Z,31.77
2018-07-22T11:57:51.532Z,32.01
2018-07-22T12:00:19.919Z,31.83
2018-07-22T12:02:48.326Z,32.24
2018-07-22T12:05:16.699Z,31.78
2018-07-22T12:07:45.262Z,32.16
2018-07-22T12:10:13.597Z,31.48
2018-07-22T12:12:41.994Z,31.53
2018-07-22T12:15:10.368Z,31.68
2018-07-22T12:17:38.825Z,32.03
2018-07-22T12:20:07.202Z,32.09
2018-07-22T12:22:35.587Z,31.42
2018-07-22T12:25:03.987Z,31.53
2018-07-22T12:27:32.371Z,31.48
2018-07-22T12:30:00.799Z,32.53
2018-07-22T12:32:29.209Z,31.71
2018-07-22T12:34:57.605Z,32.72
2018-07-22T12:37:25.995Z,32.85
2018-07-22T12:39:54.477Z,32.22
2018-07-22T12:42:22.872Z,32.17
2018-07-22T12:44:51.283Z,32.31
2018-07-22T12:47:19.669Z,31.69
2018-07-22T12:49:48.074Z,31.86
2018-07-22T12:52:16.466Z,32.71
2018-07-22T12:54:44.875Z,32.57
2018-07-22T12:57:13.259Z,33.30
2018-07-22T12:59:41.670Z,33.75
2018-07-22T13:02:10.124Z,32.60
2018-07-22T13:04:38.531Z,32.82
2018-07-22T13:07:07.187Z,32.78
2018-07-22T13:09:35.595Z,33.23
2018-07-22T13:12:03.999Z,32.91
2018-07-22T13:14:32.399Z,33.45
2018-07-22T13:17:00.791Z,34.24
2018-07-22T13:19:29.210Z,32.79
2018-07-22T13:21:57.594Z,33.95
2018-07-22T13:24:25.989Z,32.68
2018-07-22T13:26:54.357Z,32.95
2018-07-22T13:29:22.763Z,33.67
2018-07-22T13:31:51.277Z,32.96
2018-07-22T13:34:19.682Z,32.85
2018-07-22T13:36:48.054Z,33.05
2018-07-22T13:39:16.459Z,33.58
2018-07-22T13:41:44.848Z,33.48
2018-07-22T13:44:13.252Z,33.29
2018-07-22T13:46:41.627Z,34.56
2018-07-22T13:49:10.044Z,34.57
2018-07-22T13:51:38.462Z,33.85
2018-07-22T13:54:06.863Z,32.94
2018-07-22T13:56:35.250Z,32.51
2018-07-22T13:59:03.682Z,33.01
2018-07-22T14:01:32.058Z,32.24
2018-07-22T14:04:00.623Z,32.28
2018-07-22T14:06:29.016Z,32.98
2018-07-22T14:08:57.417Z,32.55
2018-07-22T14:11:25.811Z,33.75
2018-07-22T14:13:54.467Z,34.47
2018-07-22T14:16:22.845Z,33.84
2018-07-22T14:18:51.284Z,33.73
2018-07-22T14:21:19.782Z,34.86
2018-07-22T14:23:48.175Z,34.45
2018-07-22T14:26:16.569Z,34.35
2018-07-22T14:28:44.941Z,34.62
2018-07-22T14:31:13.341Z,33.83
2018-07-22T14:33:41.757Z,34.05
2018-07-22T14:36:10.193Z,33.68
2018-07-22T14:38:38.583Z,34.40
2018-07-22T14:41:07.115Z,33.69
2018-07-22T14:43:35.407Z,33.68
2018-07-22T14:46:03.831Z,34.76
2018-07-22T14:48:32.211Z,34.05
2018-07-22T14:51:00.609Z,33.67
2018-07-22T14:53:29.262Z,33.73
2018-07-22T14:55:57.684Z,34.42
2018-07-22T14:58:26.059Z,33.97
2018-07-22T15:00:54.492Z,33.37
2018-07-22T15:03:22.889Z,33.97
2018-07-22T15:05:51.306Z,33.91
2018-07-22T15:08:19.686Z,34.93
2018-07-22T15:10:48.164Z,34.76
2018-07-22T15:13:16.541Z,34.57
2018-07-22T15:15:45.562Z,35.83
2018-07-22T15:18:13.989Z,34.82
2018-07-22T15:20:42.397Z,36.13
2018-07-22T15:23:11.899Z,35.17
2018-07-22T15:25:40.319Z,36.47
2018-07-22T15:28:08.694Z,36.32
2018-07-22T15:30:37.089Z,35.44
2018-07-22T15:33:05.463Z,36.40
2018-07-22T15:35:33.871Z,36.41
2018-07-22T15:38:02.246Z,36.27
2018-07-22T15:40:30.630Z,36.17
2018-07-22T15:42:59.021Z,36.46
2018-07-22T15:45:27.418Z,37.12
2018-07-22T15:47:55.796Z,36.61
2018-07-22T15:50:24.196Z,36.52
2018-07-22T15:52:52.570Z,36.79
2018-07-22T15:55:21.174Z,36.63
2018-07-22T15:57:49.476Z,36.55
2018-07-22T16:00:17.884Z,36.46
2018-07-22T16:02:46.263Z,36.09
2018-07-22T16:05:14.663Z,36.86
2018-07-22T16:07:43.478Z,36.84
2018-07-22T16:10:11.874Z,37.78
2018-07-22T16:12:40.261Z,37.74
2018-07-22T16:15:08.685Z,37.96
2018-07-22T16:17:37.089Z,38.29
2018-07-22T16:20:05.495Z,37.08
2018-07-22T16:22:33.884Z,36.48
2018-07-22T16:25:02.306Z,37.24
2018-07-22T16:27:30.706Z,37.12
2018-07-22T16:29:59.191Z,36.79
2018-07-22T16:32:27.594Z,36.13
2018-07-22T16:34:56.006Z,36.33
2018-07-22T16:37:24.411Z,35.77
2018-07-22T16:39:52.817Z,35.77
2018-07-22T16:42:21.218Z,35.35
2018-07-22T16:44:49.627Z,34.59
2018-07-22T16:47:18.031Z,33.31
2018-07-22T16:49:46.420Z,33.29
2018-07-22T16:52:14.819Z,32.86
2018-07-22T16:54:43.193Z,32.52
2018-07-22T16:57:11.589Z,32.81
2018-07-22T16:59:39.972Z,32.77
2018-07-22T17:02:08.366Z,32.57
2018-07-22T17:04:36.775Z,32.33
2018-07-22T17:07:05.182Z,33.25
2018-07-22T17:09:33.561Z,33.92
2018-07-22T17:12:01.974Z,34.01
2018-07-22T17:14:30.358Z,35.44
2018-07-22T17:16:58.763Z,35.32
2018-07-22T17:19:27.162Z,35.86
2018-07-22T17:21:55.571Z,36.40
2018-07-22T17:24:23.966Z,37.72
2018-07-22T17:26:52.388Z,37.14
2018-07-22T17:29:20.839Z,36.76
2018-07-22T17:31:49.320Z,36.74
2018-07-22T17:34:17.711Z,37.21
2018-07-22T17:36:46.163Z,37.09
2018-07-22T17:39:14.557Z,36.71
2018-07-22T17:41:42.961Z,36.78
2018-07-22T17:44:11.338Z,35.71
2018-07-22T17:46:39.764Z,36.16
2018-07-22T17:49:08.147Z,36.05
2018-07-22T17:51:36.541Z,36.91
2018-07-22T17:54:04.937Z,37.20
2018-07-22T17:56:33.357Z,37.32
2018-07-22T17:59:01.744Z,37.12
2018-07-22T18:01:30.150Z,37.70
2018-07-22T18:03:58.526Z,37.36
2018-07-22T18:06:26.926Z,38.15
2018-07-22T18:08:55.319Z,38.44
2018-07-22T18:11:23.731Z,39.35
2018-07-22T18:13:52.119Z,39.25
2018-07-22T18:16:20.543Z,40.73
2018-07-22T18:18:48.972Z,41.13
2018-07-22T18:21:17.454Z,40.45
2018-07-22T18:23:45.841Z,40.15
2018-07-22T18:26:14.203Z,40.66
2018-07-22T18:28:42.653Z,41.23
2018-07-22T18:31:10.999Z,42.32
2018-07-22T18:33:39.411Z,41.98
2018-07-22T18:36:07.937Z,42.07
2018-07-22T18:38:36.330Z,41.97
2018-07-22T18:41:04.707Z,43.04
2018-07-22T18:43:33.115Z,42.62
2018-07-22T18:46:01.540Z,42.85
2018-07-22T18:48:30.098Z,43.06
2018-07-22T18:50:58.413Z,43.00
2018-07-22T18:53:26.775Z,43.85
2018-07-22T18:55:55.150Z,44.44
2018-07-22T18:58:23.554Z,43.71
2018-07-22T19:00:51.925Z,43.63
2018-07-22T19:03:20.407Z,43.64
2018-07-22T19:05:48.786Z,44.51
2018-07-22T19:08:17.174Z,43.80
2018-07-22T19:10:45.547Z,44.94
2018-07-22T19:13:14.071Z,45.23
2018-07-22T19:15:42.389Z,45.34
2018-07-22T19:18:10.817Z,45.06
2018-07-22T19:20:39.199Z,45.68
2018-07-22T19:23:07.631Z,46.88
2018-07-22T19:25:36.017Z,47.00
2018-07-22T19:28:04.415Z,46.89
2018-07-22T19:30:32.833Z,47.18
2018-07-22T19:33:01.229Z,46.99
2018-07-22T19:35:29.684Z,48.26
2018-07-22T19:37:58.123Z,48.45
2018-07-22T19:40:26.573Z,48.32
2018-07-22T19:42:54.984Z,48.75
2018-07-22T19:45:23.366Z,49.10
2018-07-22T19:47:51.830Z,49.41
2018-07-22T19:50:20.214Z,49.03
2018-07-22T19:52:48.609Z,49.28
2018-07-22T19:55:16.983Z,49.92
2018-07-22T19:57:45.402Z,50.77
2018-07-22T20:00:14.078Z,50.63
2018-07-22T20:02:42.788Z,51.38
2018-07-22T20:05:11.162Z,51.60
2018-07-22T20:07:39.645Z,51.20
2018-07-22T20:10:08.038Z,51.46
2018-07-22T20:12:36.479Z,52.64
2018-07-22T20:15:05.212Z,52.22
2018-07-22T20:17:33.675Z,52.40
2018-07-22T20:20:02.066Z,53.48
2018-07-22T20:22:30.454Z,53.71
2018-07-22T20:24:58.849Z,53.63
2018-07-22T20:27:27.230Z,54.17
2018-07-22T20:29:55.638Z,54.33
2018-07-22T20:32:24.019Z,54.12
2018-07-22T20:34:52.412Z,55.19
2018-07-22T20:37:20.791Z,54.63
2018-07-22T20:39:49.190Z,55.75
2018-07-22T20:42:17.578Z,55.18
2018-07-22T20:44:45.977Z,55.36
2018-07-22T20:47:14.425Z,56.42
2018-07-22T20:49:42.770Z,55.91
2018-07-22T20:52:11.148Z,55.84
2018-07-22T20:54:39.544Z,56.61
2018-07-22T20:57:07.940Z,57.19
2018-07-22T20:59:36.346Z,57.37
2018-07-22T21:02:04.754Z,57.57
2018-07-22T21:04:33.278Z,56.91
2018-07-22T21:07:01.655Z,57.90
2018-07-22T21:09:30.061Z,58.07
2018-07-22T21:13:07.966Z,57.35
2018-07-22T21:15:36.559Z,57.45
2018-07-22T21:18:04.975Z,57.89
2018-07-22T21:20:33.386Z,58.73
2018-07-22T21:23:01.758Z,58.93
2018-07-22T21:25:30.153Z,58.15
2018-07-22T21:27:58.534Z,59.27
2018-07-22T21:30:26.948Z,58.66
2018-07-22T21:32:55.321Z,58.88
2018-07-22T21:35:23.730Z,59.95
2018-07-22T21:37:52.114Z,58.96
2018-07-22T21:40:20.575Z,59.59
2018-07-22T21:42:48.932Z,59.79
2018-07-22T21:45:17.321Z,60.69
2018-07-22T21:47:45.720Z,60.56
2018-07-22T21:50:14.117Z,60.80
2018-07-22T21:52:42.602Z,60.44
2018-07-22T21:55:11.027Z,61.25
2018-07-22T21:57:39.410Z,60.75
2018-07-22T22:00:22.506Z,61.92
2018-07-22T22:02:50.928Z,61.91
2018-07-22T22:05:19.334Z,61.45
2018-07-22T22:07:47.715Z,61.75
2018-07-22T22:10:16.118Z,62.64
2018-07-22T22:12:44.499Z,62.02
2018-07-22T22:15:26.302Z,61.94
2018-07-22T22:17:56.091Z,62.57
2018-07-22T22:20:24.495Z,62.09
2018-07-22T22:22:52.873Z,62.20
2018-07-22T22:25:21.288Z,62.23
2018-07-22T22:27:49.670Z,63.06
2018-07-22T22:30:18.619Z,63.22
2018-07-22T22:32:47.490Z,62.71
2018-07-22T22:35:15.890Z,63.53
2018-07-22T22:37:44.861Z,64.01
2018-07-22T22:40:14.192Z,64.03
2018-07-22T22:42:43.882Z,63.20
2018-07-22T22:45:12.478Z,63.41
2018-07-22T22:47:40.862Z,64.42
2018-07-22T22:50:09.292Z,64.20
2018-07-22T22:52:37.906Z,64.31
2018-07-22T22:55:06.410Z,63.92
2018-07-22T22:57:34.823Z,64.79
2018-07-22T23:00:03.251Z,65.08
2018-07-22T23:02:35.289Z,65.17
2018-07-22T23:05:04.440Z,65.33
2018-07-22T23:07:32.865Z,64.94
2018-07-22T23:10:01.603Z,65.73
2018-07-22T23:12:29.998Z,65.82
2018-07-22T23:14:58.418Z,65.34
2018-07-22T23:17:26.834Z,65.48
2018-07-22T23:19:55.283Z,65.99
2018-07-22T23:22:25.469Z,65.19
2018-07-22T23:24:53.861Z,66.27
2018-07-22T23:27:22.236Z,66.42
2018-07-22T23:29:50.709Z,67.29
2018-07-22T23:32:19.081Z,67.46
2018-07-22T23:34:47.483Z,66.89
2018-07-22T23:37:15.862Z,66.92
2018-07-22T23:39:44.233Z,67.19
2018-07-22T23:42:12.663Z,67.28
2018-07-22T23:44:41.034Z,67.73
2018-07-22T23:47:09.435Z,68.21
2018-07-22T23:49:37.814Z,67.64
2018-07-22T23:52:06.219Z,67.77
2018-07-22T23:54:34.598Z,68.69
2018-07-22T23:57:02.997Z,68.10
2018-07-22T23:59:31.374Z,69.01
